sensor_id;sensor_type;location;lat;lon;timestamp;P1;durP1;ratioP1;P2;durP2;ratioP2
76373;SDS011;65197;50.164;8.012;2022-11-25T00:02:06;19.15;;;4.35;;
76373;SDS011;65197;50.164;8.012;2022-11-25T00:04:31;12.85;;;4.47;;
76373;SDS011;65197;50.164;8.012;2022-11-25T00:07:00;20.98;;;5.32;;
76373;SDS011;65197;50.164;8.012;2022-11-25T00:09:26;13.80;;;4.88;;
76373;SDS011;65197;50.164;8.012;2022-11-25T00:11:52;26.48;;;5.72;;
76373;SDS011;65197;50.164;8.012;2022-11-25T00:14:17;16.58;;;5.18;;
76373;SDS011;65197;50.164;8.012;2022-11-25T00:16:42;20.85;;;5.72;;
76373;SDS011;65197;50.164;8.012;2022-11-25T00:19:08;24.17;;;6.30;;
76373;SDS011;65197;50.164;8.012;2022-11-25T00:21:34;16.05;;;6.03;;
76373;SDS011;65197;50.164;8.012;2022-11-25T00:24:00;21.15;;;6.57;;
76373;SDS011;65197;50.164;8.012;2022-11-25T00:26:28;23.40;;;6.80;;
76373;SDS011;65197;50.164;8.012;2022-11-25T00:28:57;16.98;;;6.70;;
76373;SDS011;65197;50.164;8.012;2022-11-25T00:31:25;16.15;;;6.80;;
76373;SDS011;65197;50.164;8.012;2022-11-25T00:33:52;23.30;;;6.95;;
76373;SDS011;65197;50.164;8.012;2022-11-25T00:36:31;24.13;;;7.75;;
76373;SDS011;65197;50.164;8.012;2022-11-25T00:39:02;17.95;;;6.15;;
76373;SDS011;65197;50.164;8.012;2022-11-25T00:41:29;18.90;;;7.78;;
76373;SDS011;65197;50.164;8.012;2022-11-25T00:44:14;21.42;;;6.47;;
76373;SDS011;65197;50.164;8.012;2022-11-25T00:47:00;26.52;;;7.45;;
76373;SDS011;65197;50.164;8.012;2022-11-25T00:49:26;25.50;;;6.18;;
76373;SDS011;65197;50.164;8.012;2022-11-25T00:51:52;24.73;;;6.35;;
76373;SDS011;65197;50.164;8.012;2022-11-25T00:54:17;21.98;;;6.55;;
76373;SDS011;65197;50.164;8.012;2022-11-25T00:56:43;23.92;;;7.20;;
76373;SDS011;65197;50.164;8.012;2022-11-25T00:59:09;24.20;;;7.28;;
76373;SDS011;65197;50.164;8.012;2022-11-25T01:01:34;21.30;;;6.43;;
76373;SDS011;65197;50.164;8.012;2022-11-25T01:04:00;20.92;;;7.60;;
76373;SDS011;65197;50.164;8.012;2022-11-25T01:06:26;18.20;;;7.30;;
76373;SDS011;65197;50.164;8.012;2022-11-25T01:08:51;22.35;;;8.35;;
76373;SDS011;65197;50.164;8.012;2022-11-25T01:11:18;21.35;;;7.20;;
76373;SDS011;65197;50.164;8.012;2022-11-25T01:13:45;27.50;;;8.65;;
76373;SDS011;65197;50.164;8.012;2022-11-25T01:16:12;29.92;;;7.80;;
76373;SDS011;65197;50.164;8.012;2022-11-25T01:18:39;27.58;;;7.95;;
76373;SDS011;65197;50.164;8.012;2022-11-25T01:21:06;21.65;;;7.28;;
76373;SDS011;65197;50.164;8.012;2022-11-25T01:23:34;28.05;;;7.72;;
76373;SDS011;65197;50.164;8.012;2022-11-25T01:26:00;29.60;;;7.55;;
76373;SDS011;65197;50.164;8.012;2022-11-25T01:28:30;23.38;;;6.85;;
76373;SDS011;65197;50.164;8.012;2022-11-25T01:31:03;26.50;;;7.53;;
76373;SDS011;65197;50.164;8.012;2022-11-25T01:33:33;22.83;;;6.68;;
76373;SDS011;65197;50.164;8.012;2022-11-25T01:36:00;17.45;;;7.18;;
76373;SDS011;65197;50.164;8.012;2022-11-25T01:38:33;21.25;;;7.95;;
76373;SDS011;65197;50.164;8.012;2022-11-25T01:40:59;16.17;;;8.07;;
76373;SDS011;65197;50.164;8.012;2022-11-25T01:43:25;22.27;;;8.23;;
76373;SDS011;65197;50.164;8.012;2022-11-25T01:45:51;28.08;;;8.63;;
76373;SDS011;65197;50.164;8.012;2022-11-25T01:48:20;30.70;;;8.85;;
76373;SDS011;65197;50.164;8.012;2022-11-25T01:50:51;21.60;;;8.18;;
76373;SDS011;65197;50.164;8.012;2022-11-25T01:53:17;27.02;;;8.52;;
76373;SDS011;65197;50.164;8.012;2022-11-25T01:55:47;27.08;;;7.65;;
76373;SDS011;65197;50.164;8.012;2022-11-25T01:58:17;23.52;;;6.82;;
76373;SDS011;65197;50.164;8.012;2022-11-25T02:00:50;23.58;;;6.63;;
76373;SDS011;65197;50.164;8.012;2022-11-25T02:03:18;22.13;;;7.75;;
76373;SDS011;65197;50.164;8.012;2022-11-25T02:08:27;17.42;;;6.53;;
76373;SDS011;65197;50.164;8.012;2022-11-25T02:10:53;16.20;;;6.43;;
76373;SDS011;65197;50.164;8.012;2022-11-25T02:13:20;15.98;;;6.35;;
76373;SDS011;65197;50.164;8.012;2022-11-25T02:15:47;18.80;;;6.07;;
76373;SDS011;65197;50.164;8.012;2022-11-25T02:18:13;18.20;;;6.93;;
76373;SDS011;65197;50.164;8.012;2022-11-25T02:20:39;13.68;;;5.80;;
76373;SDS011;65197;50.164;8.012;2022-11-25T02:25:39;18.63;;;6.40;;
76373;SDS011;65197;50.164;8.012;2022-11-25T02:30:45;17.02;;;5.82;;
76373;SDS011;65197;50.164;8.012;2022-11-25T02:33:11;16.88;;;5.38;;
76373;SDS011;65197;50.164;8.012;2022-11-25T02:38:05;12.40;;;4.95;;
76373;SDS011;65197;50.164;8.012;2022-11-25T02:40:32;13.00;;;5.00;;
76373;SDS011;65197;50.164;8.012;2022-11-25T02:43:00;18.40;;;4.85;;
76373;SDS011;65197;50.164;8.012;2022-11-25T02:45:29;11.30;;;4.03;;
76373;SDS011;65197;50.164;8.012;2022-11-25T02:48:23;11.55;;;3.60;;
76373;SDS011;65197;50.164;8.012;2022-11-25T02:50:49;11.32;;;4.13;;
76373;SDS011;65197;50.164;8.012;2022-11-25T02:53:15;8.70;;;3.25;;
76373;SDS011;65197;50.164;8.012;2022-11-25T02:55:41;13.77;;;4.50;;
76373;SDS011;65197;50.164;8.012;2022-11-25T02:58:06;13.25;;;3.15;;
76373;SDS011;65197;50.164;8.012;2022-11-25T03:00:32;13.88;;;4.38;;
76373;SDS011;65197;50.164;8.012;2022-11-25T03:02:58;14.45;;;3.50;;
76373;SDS011;65197;50.164;8.012;2022-11-25T03:05:23;11.40;;;3.58;;
76373;SDS011;65197;50.164;8.012;2022-11-25T03:07:49;9.18;;;3.38;;
76373;SDS011;65197;50.164;8.012;2022-11-25T03:10:14;13.35;;;3.53;;
76373;SDS011;65197;50.164;8.012;2022-11-25T03:12:40;11.98;;;4.18;;
76373;SDS011;65197;50.164;8.012;2022-11-25T03:15:06;17.83;;;3.60;;
76373;SDS011;65197;50.164;8.012;2022-11-25T03:17:32;7.70;;;3.03;;
76373;SDS011;65197;50.164;8.012;2022-11-25T03:19:57;18.00;;;3.33;;
76373;SDS011;65197;50.164;8.012;2022-11-25T03:22:22;10.20;;;3.22;;
76373;SDS011;65197;50.164;8.012;2022-11-25T03:24:48;14.10;;;3.38;;
76373;SDS011;65197;50.164;8.012;2022-11-25T03:27:13;11.75;;;3.03;;
76373;SDS011;65197;50.164;8.012;2022-11-25T03:29:39;12.15;;;2.90;;
76373;SDS011;65197;50.164;8.012;2022-11-25T03:32:04;12.30;;;3.15;;
76373;SDS011;65197;50.164;8.012;2022-11-25T03:34:30;18.60;;;3.10;;
76373;SDS011;65197;50.164;8.012;2022-11-25T03:36:55;11.02;;;3.28;;
76373;SDS011;65197;50.164;8.012;2022-11-25T03:39:21;10.82;;;2.70;;
76373;SDS011;65197;50.164;8.012;2022-11-25T03:41:47;8.60;;;2.33;;
76373;SDS011;65197;50.164;8.012;2022-11-25T03:44:13;9.63;;;3.10;;
76373;SDS011;65197;50.164;8.012;2022-11-25T03:46:38;8.50;;;2.47;;
76373;SDS011;65197;50.164;8.012;2022-11-25T03:49:04;7.40;;;2.47;;
76373;SDS011;65197;50.164;8.012;2022-11-25T03:51:29;10.60;;;4.07;;
76373;SDS011;65197;50.164;8.012;2022-11-25T03:53:55;13.73;;;2.88;;
76373;SDS011;65197;50.164;8.012;2022-11-25T03:56:20;9.88;;;2.67;;
76373;SDS011;65197;50.164;8.012;2022-11-25T03:58:46;11.20;;;3.25;;
76373;SDS011;65197;50.164;8.012;2022-11-25T04:01:11;10.93;;;2.97;;
76373;SDS011;65197;50.164;8.012;2022-11-25T04:03:36;18.25;;;2.97;;
76373;SDS011;65197;50.164;8.012;2022-11-25T04:06:02;10.63;;;3.08;;
76373;SDS011;65197;50.164;8.012;2022-11-25T04:08:27;11.13;;;2.80;;
76373;SDS011;65197;50.164;8.012;2022-11-25T04:10:53;7.97;;;2.67;;
76373;SDS011;65197;50.164;8.012;2022-11-25T04:13:18;4.00;;;2.00;;
76373;SDS011;65197;50.164;8.012;2022-11-25T04:15:44;12.00;;;2.72;;
76373;SDS011;65197;50.164;8.012;2022-11-25T04:18:11;11.32;;;2.42;;
76373;SDS011;65197;50.164;8.012;2022-11-25T04:20:37;8.00;;;2.65;;
76373;SDS011;65197;50.164;8.012;2022-11-25T04:23:03;16.48;;;3.30;;
76373;SDS011;65197;50.164;8.012;2022-11-25T04:25:30;13.23;;;2.33;;
76373;SDS011;65197;50.164;8.012;2022-11-25T04:27:55;8.05;;;2.97;;
76373;SDS011;65197;50.164;8.012;2022-11-25T04:30:21;8.25;;;3.58;;
76373;SDS011;65197;50.164;8.012;2022-11-25T04:32:46;8.35;;;3.05;;
76373;SDS011;65197;50.164;8.012;2022-11-25T04:35:12;11.25;;;2.60;;
76373;SDS011;65197;50.164;8.012;2022-11-25T04:37:37;8.63;;;2.70;;
76373;SDS011;65197;50.164;8.012;2022-11-25T04:40:03;10.90;;;3.30;;
76373;SDS011;65197;50.164;8.012;2022-11-25T04:42:29;7.07;;;2.42;;
76373;SDS011;65197;50.164;8.012;2022-11-25T04:45:05;8.25;;;2.58;;
76373;SDS011;65197;50.164;8.012;2022-11-25T04:47:33;7.07;;;2.63;;
76373;SDS011;65197;50.164;8.012;2022-11-25T04:49:58;14.20;;;3.63;;
76373;SDS011;65197;50.164;8.012;2022-11-25T04:52:24;7.93;;;3.30;;
76373;SDS011;65197;50.164;8.012;2022-11-25T04:54:49;9.10;;;2.72;;
76373;SDS011;65197;50.164;8.012;2022-11-25T04:57:15;11.55;;;3.10;;
76373;SDS011;65197;50.164;8.012;2022-11-25T04:59:41;13.95;;;3.58;;
76373;SDS011;65197;50.164;8.012;2022-11-25T05:04:45;8.68;;;3.13;;
76373;SDS011;65197;50.164;8.012;2022-11-25T05:09:38;5.55;;;3.00;;
76373;SDS011;65197;50.164;8.012;2022-11-25T05:12:04;5.78;;;2.70;;
76373;SDS011;65197;50.164;8.012;2022-11-25T05:14:31;8.85;;;4.45;;
76373;SDS011;65197;50.164;8.012;2022-11-25T05:16:56;5.43;;;2.80;;
76373;SDS011;65197;50.164;8.012;2022-11-25T05:19:22;7.00;;;3.22;;
76373;SDS011;65197;50.164;8.012;2022-11-25T05:21:47;10.52;;;3.63;;
76373;SDS011;65197;50.164;8.012;2022-11-25T05:24:12;9.68;;;2.92;;
76373;SDS011;65197;50.164;8.012;2022-11-25T05:26:38;5.78;;;2.17;;
76373;SDS011;65197;50.164;8.012;2022-11-25T05:29:03;8.15;;;2.70;;
76373;SDS011;65197;50.164;8.012;2022-11-25T05:31:29;6.50;;;2.20;;
76373;SDS011;65197;50.164;8.012;2022-11-25T05:33:54;8.70;;;2.40;;
76373;SDS011;65197;50.164;8.012;2022-11-25T05:36:19;8.52;;;2.67;;
76373;SDS011;65197;50.164;8.012;2022-11-25T05:38:45;8.55;;;2.13;;
76373;SDS011;65197;50.164;8.012;2022-11-25T05:41:10;5.72;;;2.65;;
76373;SDS011;65197;50.164;8.012;2022-11-25T05:43:36;8.35;;;2.25;;
76373;SDS011;65197;50.164;8.012;2022-11-25T05:46:05;6.60;;;2.20;;
76373;SDS011;65197;50.164;8.012;2022-11-25T05:48:31;9.23;;;2.05;;
76373;SDS011;65197;50.164;8.012;2022-11-25T05:51:00;7.47;;;2.03;;
76373;SDS011;65197;50.164;8.012;2022-11-25T05:53:27;8.70;;;2.50;;
76373;SDS011;65197;50.164;8.012;2022-11-25T05:55:53;6.88;;;2.15;;
76373;SDS011;65197;50.164;8.012;2022-11-25T05:58:23;7.40;;;2.40;;
76373;SDS011;65197;50.164;8.012;2022-11-25T06:00:49;7.25;;;1.75;;
76373;SDS011;65197;50.164;8.012;2022-11-25T06:03:14;5.15;;;1.92;;
76373;SDS011;65197;50.164;8.012;2022-11-25T06:05:40;6.45;;;2.75;;
76373;SDS011;65197;50.164;8.012;2022-11-25T06:08:06;4.25;;;2.00;;
76373;SDS011;65197;50.164;8.012;2022-11-25T06:10:31;5.00;;;2.50;;
76373;SDS011;65197;50.164;8.012;2022-11-25T06:12:57;6.78;;;2.17;;
76373;SDS011;65197;50.164;8.012;2022-11-25T06:15:23;9.60;;;2.20;;
76373;SDS011;65197;50.164;8.012;2022-11-25T06:17:49;6.65;;;1.90;;
76373;SDS011;65197;50.164;8.012;2022-11-25T06:20:14;4.20;;;1.80;;
76373;SDS011;65197;50.164;8.012;2022-11-25T06:22:39;7.10;;;2.30;;
76373;SDS011;65197;50.164;8.012;2022-11-25T06:25:05;5.30;;;1.90;;
76373;SDS011;65197;50.164;8.012;2022-11-25T06:27:31;5.75;;;1.67;;
76373;SDS011;65197;50.164;8.012;2022-11-25T06:29:57;6.55;;;1.85;;
76373;SDS011;65197;50.164;8.012;2022-11-25T06:32:22;5.40;;;1.83;;
76373;SDS011;65197;50.164;8.012;2022-11-25T06:34:48;5.38;;;1.92;;
76373;SDS011;65197;50.164;8.012;2022-11-25T06:37:14;8.98;;;2.15;;
76373;SDS011;65197;50.164;8.012;2022-11-25T06:39:39;6.95;;;2.13;;
76373;SDS011;65197;50.164;8.012;2022-11-25T06:42:05;5.82;;;2.05;;
76373;SDS011;65197;50.164;8.012;2022-11-25T06:44:30;6.13;;;1.67;;
76373;SDS011;65197;50.164;8.012;2022-11-25T06:46:56;6.82;;;1.83;;
76373;SDS011;65197;50.164;8.012;2022-11-25T06:49:21;6.07;;;2.13;;
76373;SDS011;65197;50.164;8.012;2022-11-25T06:51:48;7.07;;;1.98;;
76373;SDS011;65197;50.164;8.012;2022-11-25T06:54:14;6.63;;;2.20;;
76373;SDS011;65197;50.164;8.012;2022-11-25T06:56:39;11.63;;;2.03;;
76373;SDS011;65197;50.164;8.012;2022-11-25T06:59:05;7.20;;;2.53;;
76373;SDS011;65197;50.164;8.012;2022-11-25T07:01:30;6.15;;;2.15;;
76373;SDS011;65197;50.164;8.012;2022-11-25T07:03:59;8.27;;;2.10;;
76373;SDS011;65197;50.164;8.012;2022-11-25T07:06:27;6.45;;;1.95;;
76373;SDS011;65197;50.164;8.012;2022-11-25T07:08:54;8.52;;;2.00;;
76373;SDS011;65197;50.164;8.012;2022-11-25T07:11:24;5.63;;;2.20;;
76373;SDS011;65197;50.164;8.012;2022-11-25T07:14:00;7.43;;;2.30;;
76373;SDS011;65197;50.164;8.012;2022-11-25T07:16:28;6.70;;;2.20;;
76373;SDS011;65197;50.164;8.012;2022-11-25T07:18:53;6.90;;;2.50;;
76373;SDS011;65197;50.164;8.012;2022-11-25T07:21:20;10.35;;;2.58;;
76373;SDS011;65197;50.164;8.012;2022-11-25T07:23:48;4.78;;;2.30;;
76373;SDS011;65197;50.164;8.012;2022-11-25T07:26:15;6.22;;;2.30;;
76373;SDS011;65197;50.164;8.012;2022-11-25T07:28:42;7.00;;;2.10;;
76373;SDS011;65197;50.164;8.012;2022-11-25T07:33:39;8.63;;;2.25;;
76373;SDS011;65197;50.164;8.012;2022-11-25T07:36:05;8.32;;;2.53;;
76373;SDS011;65197;50.164;8.012;2022-11-25T07:38:33;8.85;;;2.55;;
76373;SDS011;65197;50.164;8.012;2022-11-25T07:41:15;6.40;;;2.65;;
76373;SDS011;65197;50.164;8.012;2022-11-25T07:43:45;5.95;;;2.17;;
76373;SDS011;65197;50.164;8.012;2022-11-25T07:46:20;5.90;;;3.40;;
76373;SDS011;65197;50.164;8.012;2022-11-25T07:48:47;8.35;;;2.10;;
76373;SDS011;65197;50.164;8.012;2022-11-25T07:51:17;6.18;;;2.40;;
76373;SDS011;65197;50.164;8.012;2022-11-25T07:53:53;7.25;;;2.50;;
76373;SDS011;65197;50.164;8.012;2022-11-25T07:56:20;6.10;;;2.15;;
76373;SDS011;65197;50.164;8.012;2022-11-25T07:58:46;11.70;;;2.95;;
76373;SDS011;65197;50.164;8.012;2022-11-25T08:01:12;5.53;;;2.28;;
76373;SDS011;65197;50.164;8.012;2022-11-25T08:03:39;9.07;;;2.30;;
76373;SDS011;65197;50.164;8.012;2022-11-25T08:06:06;8.02;;;2.35;;
76373;SDS011;65197;50.164;8.012;2022-11-25T08:08:34;9.27;;;2.88;;
76373;SDS011;65197;50.164;8.012;2022-11-25T08:11:05;8.10;;;2.50;;
76373;SDS011;65197;50.164;8.012;2022-11-25T08:13:42;4.45;;;2.60;;
76373;SDS011;65197;50.164;8.012;2022-11-25T08:16:09;6.15;;;2.20;;
76373;SDS011;65197;50.164;8.012;2022-11-25T08:18:37;5.78;;;2.83;;
76373;SDS011;65197;50.164;8.012;2022-11-25T08:21:03;5.57;;;2.28;;
76373;SDS011;65197;50.164;8.012;2022-11-25T08:23:33;9.88;;;2.72;;
76373;SDS011;65197;50.164;8.012;2022-11-25T08:26:06;11.07;;;2.70;;
76373;SDS011;65197;50.164;8.012;2022-11-25T08:28:33;8.27;;;2.88;;
76373;SDS011;65197;50.164;8.012;2022-11-25T08:31:06;7.15;;;2.10;;
76373;SDS011;65197;50.164;8.012;2022-11-25T08:33:37;8.05;;;2.90;;
76373;SDS011;65197;50.164;8.012;2022-11-25T08:36:03;8.43;;;2.63;;
76373;SDS011;65197;50.164;8.012;2022-11-25T08:38:30;9.07;;;2.42;;
76373;SDS011;65197;50.164;8.012;2022-11-25T08:40:56;8.90;;;2.72;;
76373;SDS011;65197;50.164;8.012;2022-11-25T08:43:22;6.88;;;2.80;;
76373;SDS011;65197;50.164;8.012;2022-11-25T08:45:48;7.32;;;3.03;;
76373;SDS011;65197;50.164;8.012;2022-11-25T08:48:14;8.70;;;2.70;;
76373;SDS011;65197;50.164;8.012;2022-11-25T08:50:41;6.82;;;3.10;;
76373;SDS011;65197;50.164;8.012;2022-11-25T08:53:11;8.45;;;2.90;;
76373;SDS011;65197;50.164;8.012;2022-11-25T08:55:36;9.95;;;3.28;;
76373;SDS011;65197;50.164;8.012;2022-11-25T08:58:03;11.77;;;3.25;;
76373;SDS011;65197;50.164;8.012;2022-11-25T09:00:28;9.65;;;3.17;;
76373;SDS011;65197;50.164;8.012;2022-11-25T09:02:53;13.38;;;3.53;;
76373;SDS011;65197;50.164;8.012;2022-11-25T09:05:19;8.82;;;3.53;;
76373;SDS011;65197;50.164;8.012;2022-11-25T09:07:44;9.02;;;3.70;;
76373;SDS011;65197;50.164;8.012;2022-11-25T09:10:12;10.77;;;4.45;;
76373;SDS011;65197;50.164;8.012;2022-11-25T09:12:40;8.13;;;3.08;;
76373;SDS011;65197;50.164;8.012;2022-11-25T09:15:06;11.52;;;3.70;;
76373;SDS011;65197;50.164;8.012;2022-11-25T09:17:32;10.40;;;4.32;;
76373;SDS011;65197;50.164;8.012;2022-11-25T09:22:29;10.93;;;3.75;;
76373;SDS011;65197;50.164;8.012;2022-11-25T09:24:54;13.00;;;3.72;;
76373;SDS011;65197;50.164;8.012;2022-11-25T09:27:20;10.73;;;3.78;;
76373;SDS011;65197;50.164;8.012;2022-11-25T09:29:45;5.78;;;3.28;;
76373;SDS011;65197;50.164;8.012;2022-11-25T09:32:11;12.45;;;3.72;;
76373;SDS011;65197;50.164;8.012;2022-11-25T09:34:36;7.80;;;3.60;;
76373;SDS011;65197;50.164;8.012;2022-11-25T09:37:01;8.73;;;4.38;;
76373;SDS011;65197;50.164;8.012;2022-11-25T09:39:27;11.25;;;5.20;;
76373;SDS011;65197;50.164;8.012;2022-11-25T09:45:05;7.32;;;3.97;;
76373;SDS011;65197;50.164;8.012;2022-11-25T10:01:46;7.82;;;4.03;;
76373;SDS011;65197;50.164;8.012;2022-11-25T10:04:23;9.93;;;4.00;;
76373;SDS011;65197;50.164;8.012;2022-11-25T10:07:01;10.45;;;3.95;;
76373;SDS011;65197;50.164;8.012;2022-11-25T10:09:29;14.20;;;3.90;;
76373;SDS011;65197;50.164;8.012;2022-11-25T10:12:31;13.05;;;4.72;;
76373;SDS011;65197;50.164;8.012;2022-11-25T10:18:24;5.78;;;3.70;;
76373;SDS011;65197;50.164;8.012;2022-11-25T10:20:54;11.50;;;4.45;;
76373;SDS011;65197;50.164;8.012;2022-11-25T10:23:40;10.48;;;4.70;;
76373;SDS011;65197;50.164;8.012;2022-11-25T10:26:16;12.07;;;4.00;;
76373;SDS011;65197;50.164;8.012;2022-11-25T10:28:54;8.68;;;3.70;;
76373;SDS011;65197;50.164;8.012;2022-11-25T10:31:32;9.82;;;3.95;;
76373;SDS011;65197;50.164;8.012;2022-11-25T10:34:00;10.23;;;3.25;;
76373;SDS011;65197;50.164;8.012;2022-11-25T10:36:30;8.00;;;3.20;;
76373;SDS011;65197;50.164;8.012;2022-11-25T10:38:59;7.07;;;3.60;;
76373;SDS011;65197;50.164;8.012;2022-11-25T10:41:49;8.85;;;3.60;;
76373;SDS011;65197;50.164;8.012;2022-11-25T10:44:25;6.47;;;3.17;;
76373;SDS011;65197;50.164;8.012;2022-11-25T10:52:13;7.35;;;3.30;;
76373;SDS011;65197;50.164;8.012;2022-11-25T10:54:54;8.98;;;3.88;;
76373;SDS011;65197;50.164;8.012;2022-11-25T10:57:32;5.72;;;3.08;;
76373;SDS011;65197;50.164;8.012;2022-11-25T10:59:59;5.57;;;2.80;;
76373;SDS011;65197;50.164;8.012;2022-11-25T11:02:29;5.60;;;2.45;;
76373;SDS011;65197;50.164;8.012;2022-11-25T11:07:33;6.35;;;2.80;;
76373;SDS011;65197;50.164;8.012;2022-11-25T11:12:41;7.57;;;2.50;;
76373;SDS011;65197;50.164;8.012;2022-11-25T11:15:26;6.10;;;2.67;;
76373;SDS011;65197;50.164;8.012;2022-11-25T11:17:53;7.18;;;2.40;;
76373;SDS011;65197;50.164;8.012;2022-11-25T11:20:24;2.92;;;2.15;;
76373;SDS011;65197;50.164;8.012;2022-11-25T11:23:02;5.07;;;2.20;;
76373;SDS011;65197;50.164;8.012;2022-11-25T11:25:35;6.25;;;2.65;;
76373;SDS011;65197;50.164;8.012;2022-11-25T11:28:02;6.93;;;2.13;;
76373;SDS011;65197;50.164;8.012;2022-11-25T11:31:31;4.28;;;2.10;;
76373;SDS011;65197;50.164;8.012;2022-11-25T11:38:53;7.25;;;2.67;;
76373;SDS011;65197;50.164;8.012;2022-11-25T11:43:32;4.60;;;1.80;;
76373;SDS011;65197;50.164;8.012;2022-11-25T11:46:17;6.07;;;1.88;;
76373;SDS011;65197;50.164;8.012;2022-11-25T11:48:55;4.53;;;1.80;;
76373;SDS011;65197;50.164;8.012;2022-11-25T11:51:45;10.35;;;2.22;;
76373;SDS011;65197;50.164;8.012;2022-11-25T11:54:32;5.25;;;1.98;;
76373;SDS011;65197;50.164;8.012;2022-11-25T11:57:04;3.03;;;1.48;;
76373;SDS011;65197;50.164;8.012;2022-11-25T12:02:30;5.20;;;1.75;;
76373;SDS011;65197;50.164;8.012;2022-11-25T12:05:16;6.80;;;1.80;;
76373;SDS011;65197;50.164;8.012;2022-11-25T12:10:37;4.95;;;1.75;;
76373;SDS011;65197;50.164;8.012;2022-11-25T12:15:50;3.08;;;1.80;;
76373;SDS011;65197;50.164;8.012;2022-11-25T12:21:01;5.70;;;2.40;;
76373;SDS011;65197;50.164;8.012;2022-11-25T12:26:21;5.40;;;1.90;;
76373;SDS011;65197;50.164;8.012;2022-11-25T12:29:08;5.13;;;2.13;;
76373;SDS011;65197;50.164;8.012;2022-11-25T12:31:43;3.42;;;1.73;;
76373;SDS011;65197;50.164;8.012;2022-11-25T12:34:30;6.90;;;2.30;;
76373;SDS011;65197;50.164;8.012;2022-11-25T12:39:44;8.32;;;3.33;;
76373;SDS011;65197;50.164;8.012;2022-11-25T12:42:21;7.22;;;2.78;;
76373;SDS011;65197;50.164;8.012;2022-11-25T12:45:03;4.38;;;1.50;;
76373;SDS011;65197;50.164;8.012;2022-11-25T12:47:36;6.10;;;2.42;;
76373;SDS011;65197;50.164;8.012;2022-11-25T12:50:01;7.32;;;2.60;;
76373;SDS011;65197;50.164;8.012;2022-11-25T12:55:23;7.07;;;1.80;;
76373;SDS011;65197;50.164;8.012;2022-11-25T13:00:51;9.40;;;2.00;;
76373;SDS011;65197;50.164;8.012;2022-11-25T13:03:33;6.30;;;1.85;;
76373;SDS011;65197;50.164;8.012;2022-11-25T13:12:19;6.47;;;1.90;;
76373;SDS011;65197;50.164;8.012;2022-11-25T13:17:49;4.88;;;2.17;;
76373;SDS011;65197;50.164;8.012;2022-11-25T13:25:35;7.72;;;1.67;;
76373;SDS011;65197;50.164;8.012;2022-11-25T13:28:03;5.07;;;2.20;;
76373;SDS011;65197;50.164;8.012;2022-11-25T13:35:45;6.75;;;1.95;;
76373;SDS011;65197;50.164;8.012;2022-11-25T13:40:59;4.57;;;1.65;;
76373;SDS011;65197;50.164;8.012;2022-11-25T13:43:26;6.80;;;2.97;;
76373;SDS011;65197;50.164;8.012;2022-11-25T13:45:52;5.10;;;2.00;;
76373;SDS011;65197;50.164;8.012;2022-11-25T13:48:20;11.93;;;5.57;;
76373;SDS011;65197;50.164;8.012;2022-11-25T13:50:49;10.50;;;5.65;;
76373;SDS011;65197;50.164;8.012;2022-11-25T13:53:21;6.65;;;3.75;;
76373;SDS011;65197;50.164;8.012;2022-11-25T13:59:47;7.03;;;2.53;;
76373;SDS011;65197;50.164;8.012;2022-11-25T14:05:38;8.93;;;1.90;;
76373;SDS011;65197;50.164;8.012;2022-11-25T14:10:59;9.68;;;2.10;;
76373;SDS011;65197;50.164;8.012;2022-11-25T14:27:18;6.47;;;1.95;;
76373;SDS011;65197;50.164;8.012;2022-11-25T14:32:19;5.38;;;2.75;;
76373;SDS011;65197;50.164;8.012;2022-11-25T14:34:48;7.53;;;2.10;;
76373;SDS011;65197;50.164;8.012;2022-11-25T14:37:27;7.13;;;2.00;;
76373;SDS011;65197;50.164;8.012;2022-11-25T14:42:43;6.18;;;2.00;;
76373;SDS011;65197;50.164;8.012;2022-11-25T14:45:28;8.40;;;2.25;;
76373;SDS011;65197;50.164;8.012;2022-11-25T14:48:14;8.75;;;2.20;;
76373;SDS011;65197;50.164;8.012;2022-11-25T14:53:28;12.23;;;2.85;;
76373;SDS011;65197;50.164;8.012;2022-11-25T14:55:55;6.85;;;2.17;;
76373;SDS011;65197;50.164;8.012;2022-11-25T14:58:25;6.82;;;1.63;;
76373;SDS011;65197;50.164;8.012;2022-11-25T15:00:54;5.95;;;2.05;;
76373;SDS011;65197;50.164;8.012;2022-11-25T15:03:24;11.43;;;2.58;;
76373;SDS011;65197;50.164;8.012;2022-11-25T15:05:54;5.55;;;2.45;;
76373;SDS011;65197;50.164;8.012;2022-11-25T15:08:21;5.40;;;1.83;;
76373;SDS011;65197;50.164;8.012;2022-11-25T15:10:58;9.75;;;3.85;;
76373;SDS011;65197;50.164;8.012;2022-11-25T15:13:32;5.70;;;1.80;;
76373;SDS011;65197;50.164;8.012;2022-11-25T15:16:21;7.90;;;2.80;;
76373;SDS011;65197;50.164;8.012;2022-11-25T15:18:54;7.90;;;2.05;;
76373;SDS011;65197;50.164;8.012;2022-11-25T15:21:23;5.15;;;2.20;;
76373;SDS011;65197;50.164;8.012;2022-11-25T15:23:53;9.90;;;2.65;;
76373;SDS011;65197;50.164;8.012;2022-11-25T15:26:20;10.23;;;2.05;;
76373;SDS011;65197;50.164;8.012;2022-11-25T15:28:52;10.65;;;2.25;;
76373;SDS011;65197;50.164;8.012;2022-11-25T15:31:19;11.93;;;4.25;;
76373;SDS011;65197;50.164;8.012;2022-11-25T15:33:46;7.97;;;2.33;;
76373;SDS011;65197;50.164;8.012;2022-11-25T15:36:14;8.73;;;3.28;;
76373;SDS011;65197;50.164;8.012;2022-11-25T15:38:43;8.70;;;2.72;;
76373;SDS011;65197;50.164;8.012;2022-11-25T15:43:38;7.55;;;1.88;;
76373;SDS011;65197;50.164;8.012;2022-11-25T15:46:09;8.80;;;2.67;;
76373;SDS011;65197;50.164;8.012;2022-11-25T15:48:42;8.20;;;2.22;;
76373;SDS011;65197;50.164;8.012;2022-11-25T15:53:41;6.15;;;2.35;;
76373;SDS011;65197;50.164;8.012;2022-11-25T15:56:08;7.78;;;2.90;;
76373;SDS011;65197;50.164;8.012;2022-11-25T15:58:40;13.82;;;7.15;;
76373;SDS011;65197;50.164;8.012;2022-11-25T16:01:18;10.90;;;5.82;;
76373;SDS011;65197;50.164;8.012;2022-11-25T16:03:46;11.40;;;5.80;;
76373;SDS011;65197;50.164;8.012;2022-11-25T16:08:54;8.07;;;4.40;;
76373;SDS011;65197;50.164;8.012;2022-11-25T16:11:20;7.03;;;5.90;;
76373;SDS011;65197;50.164;8.012;2022-11-25T16:13:50;9.25;;;3.55;;
76373;SDS011;65197;50.164;8.012;2022-11-25T16:16:29;11.02;;;6.05;;
76373;SDS011;65197;50.164;8.012;2022-11-25T16:21:27;14.65;;;6.50;;
76373;SDS011;65197;50.164;8.012;2022-11-25T16:24:10;16.48;;;7.07;;
76373;SDS011;65197;50.164;8.012;2022-11-25T16:27:22;11.02;;;4.93;;
76373;SDS011;65197;50.164;8.012;2022-11-25T16:32:22;8.15;;;4.55;;
76373;SDS011;65197;50.164;8.012;2022-11-25T16:34:53;7.95;;;2.90;;
76373;SDS011;65197;50.164;8.012;2022-11-25T16:37:20;10.25;;;3.95;;
76373;SDS011;65197;50.164;8.012;2022-11-25T16:39:46;14.93;;;4.63;;
76373;SDS011;65197;50.164;8.012;2022-11-25T16:42:16;7.65;;;3.00;;
76373;SDS011;65197;50.164;8.012;2022-11-25T16:44:45;9.75;;;3.10;;
76373;SDS011;65197;50.164;8.012;2022-11-25T16:47:13;9.82;;;3.08;;
76373;SDS011;65197;50.164;8.012;2022-11-25T16:49:38;11.25;;;3.42;;
76373;SDS011;65197;50.164;8.012;2022-11-25T16:52:04;9.10;;;2.50;;
76373;SDS011;65197;50.164;8.012;2022-11-25T16:54:29;10.55;;;3.45;;
76373;SDS011;65197;50.164;8.012;2022-11-25T16:56:55;5.85;;;2.00;;
76373;SDS011;65197;50.164;8.012;2022-11-25T17:01:53;9.82;;;4.20;;
76373;SDS011;65197;50.164;8.012;2022-11-25T17:04:19;12.75;;;4.97;;
76373;SDS011;65197;50.164;8.012;2022-11-25T17:06:44;10.10;;;2.72;;
76373;SDS011;65197;50.164;8.012;2022-11-25T17:09:10;11.75;;;3.60;;
76373;SDS011;65197;50.164;8.012;2022-11-25T17:11:37;8.02;;;2.95;;
76373;SDS011;65197;50.164;8.012;2022-11-25T17:14:12;9.57;;;3.78;;
76373;SDS011;65197;50.164;8.012;2022-11-25T17:16:44;7.68;;;3.97;;
76373;SDS011;65197;50.164;8.012;2022-11-25T17:19:11;8.15;;;3.08;;
76373;SDS011;65197;50.164;8.012;2022-11-25T17:21:39;7.93;;;3.17;;
76373;SDS011;65197;50.164;8.012;2022-11-25T17:24:08;9.90;;;2.97;;
76373;SDS011;65197;50.164;8.012;2022-11-25T17:26:56;10.55;;;4.18;;